sensor_id;sensor_type;location;lat;lon;timestamp;P1;durP1;ratioP1;P2;durP2;ratioP2
36797;SDS011;22748;8.426;99.512;2024-02-23T00:00:07;21.75;;;16.35;;
36797;SDS011;22748;8.426;99.512;2024-02-23T00:02:42;23.13;;;13.13;;
36797;SDS011;22748;8.426;99.512;2024-02-23T00:05:11;50.55;;;39.95;;
36797;SDS011;22748;8.426;99.512;2024-02-23T00:07:41;29.90;;;24.08;;
36797;SDS011;22748;8.426;99.512;2024-02-23T00:10:12;28.45;;;15.13;;
36797;SDS011;22748;8.426;99.512;2024-02-23T00:12:41;21.48;;;16.55;;
36797;SDS011;22748;8.426;99.512;2024-02-23T00:15:10;26.15;;;17.15;;
36797;SDS011;22748;8.426;99.512;2024-02-23T00:17:41;39.15;;;25.52;;
36797;SDS011;22748;8.426;99.512;2024-02-23T00:20:10;28.58;;;18.77;;
36797;SDS011;22748;8.426;99.512;2024-02-23T00:22:40;28.08;;;19.40;;
36797;SDS011;22748;8.426;99.512;2024-02-23T00:25:09;50.40;;;41.63;;
36797;SDS011;22748;8.426;99.512;2024-02-23T00:27:38;34.65;;;19.58;;
36797;SDS011;22748;8.426;99.512;2024-02-23T00:30:08;24.58;;;19.17;;
36797;SDS011;22748;8.426;99.512;2024-02-23T00:32:36;30.27;;;22.83;;
36797;SDS011;22748;8.426;99.512;2024-02-23T00:35:13;29.60;;;21.27;;
36797;SDS011;22748;8.426;99.512;2024-02-23T00:37:43;28.77;;;22.00;;
36797;SDS011;22748;8.426;99.512;2024-02-23T00:40:14;31.05;;;20.67;;
36797;SDS011;22748;8.426;99.512;2024-02-23T00:42:44;31.60;;;22.90;;
36797;SDS011;22748;8.426;99.512;2024-02-23T00:45:13;31.33;;;21.33;;
36797;SDS011;22748;8.426;99.512;2024-02-23T00:47:43;24.77;;;17.75;;
36797;SDS011;22748;8.426;99.512;2024-02-23T00:50:18;25.63;;;16.60;;
36797;SDS011;22748;8.426;99.512;2024-02-23T00:52:47;18.60;;;14.73;;
36797;SDS011;22748;8.426;99.512;2024-02-23T00:55:16;23.30;;;15.10;;
36797;SDS011;22748;8.426;99.512;2024-02-23T00:57:44;22.17;;;16.55;;
36797;SDS011;22748;8.426;99.512;2024-02-23T01:00:13;26.45;;;14.73;;
36797;SDS011;22748;8.426;99.512;2024-02-23T01:02:42;22.38;;;14.40;;
36797;SDS011;22748;8.426;99.512;2024-02-23T01:05:10;24.02;;;14.38;;
36797;SDS011;22748;8.426;99.512;2024-02-23T01:07:41;17.88;;;12.30;;
36797;SDS011;22748;8.426;99.512;2024-02-23T01:10:10;19.95;;;11.98;;
36797;SDS011;22748;8.426;99.512;2024-02-23T01:12:38;15.35;;;12.23;;
36797;SDS011;22748;8.426;99.512;2024-02-23T01:15:07;16.67;;;11.82;;
36797;SDS011;22748;8.426;99.512;2024-02-23T01:17:35;17.00;;;14.07;;
36797;SDS011;22748;8.426;99.512;2024-02-23T01:20:04;22.35;;;15.80;;
36797;SDS011;22748;8.426;99.512;2024-02-23T01:22:33;15.07;;;11.93;;
36797;SDS011;22748;8.426;99.512;2024-02-23T01:25:06;12.15;;;10.15;;
36797;SDS011;22748;8.426;99.512;2024-02-23T01:27:35;12.75;;;10.48;;
36797;SDS011;22748;8.426;99.512;2024-02-23T01:30:04;14.90;;;10.40;;
36797;SDS011;22748;8.426;99.512;2024-02-23T01:32:32;12.82;;;10.90;;
36797;SDS011;22748;8.426;99.512;2024-02-23T01:35:03;16.05;;;11.45;;
36797;SDS011;22748;8.426;99.512;2024-02-23T01:37:32;11.98;;;10.32;;
36797;SDS011;22748;8.426;99.512;2024-02-23T01:40:00;13.15;;;10.18;;
36797;SDS011;22748;8.426;99.512;2024-02-23T01:42:34;13.60;;;10.75;;
36797;SDS011;22748;8.426;99.512;2024-02-23T01:45:03;15.45;;;11.05;;
36797;SDS011;22748;8.426;99.512;2024-02-23T01:47:31;14.93;;;9.85;;
36797;SDS011;22748;8.426;99.512;2024-02-23T01:50:00;12.48;;;10.27;;
36797;SDS011;22748;8.426;99.512;2024-02-23T01:52:29;12.75;;;10.48;;
36797;SDS011;22748;8.426;99.512;2024-02-23T01:54:59;15.80;;;10.73;;
36797;SDS011;22748;8.426;99.512;2024-02-23T01:57:27;19.25;;;11.40;;
36797;SDS011;22748;8.426;99.512;2024-02-23T02:00:01;16.00;;;11.18;;
36797;SDS011;22748;8.426;99.512;2024-02-23T02:02:31;15.32;;;12.10;;
36797;SDS011;22748;8.426;99.512;2024-02-23T02:04:59;27.70;;;13.63;;
36797;SDS011;22748;8.426;99.512;2024-02-23T02:07:29;21.80;;;14.20;;
36797;SDS011;22748;8.426;99.512;2024-02-23T02:09:57;18.77;;;12.75;;
36797;SDS011;22748;8.426;99.512;2024-02-23T02:12:29;16.85;;;11.95;;
36797;SDS011;22748;8.426;99.512;2024-02-23T02:15:04;18.90;;;11.15;;
36797;SDS011;22748;8.426;99.512;2024-02-23T02:17:34;15.82;;;11.05;;
36797;SDS011;22748;8.426;99.512;2024-02-23T02:20:03;26.90;;;18.65;;
36797;SDS011;22748;8.426;99.512;2024-02-23T02:22:32;16.27;;;11.18;;
36797;SDS011;22748;8.426;99.512;2024-02-23T02:25:01;15.15;;;8.85;;
36797;SDS011;22748;8.426;99.512;2024-02-23T02:27:32;11.63;;;8.98;;
36797;SDS011;22748;8.426;99.512;2024-02-23T02:30:07;13.48;;;9.68;;
36797;SDS011;22748;8.426;99.512;2024-02-23T02:32:37;13.63;;;9.43;;
36797;SDS011;22748;8.426;99.512;2024-02-23T02:35:06;11.95;;;9.00;;
36797;SDS011;22748;8.426;99.512;2024-02-23T02:37:34;17.55;;;12.18;;
36797;SDS011;22748;8.426;99.512;2024-02-23T02:40:04;14.18;;;11.15;;
36797;SDS011;22748;8.426;99.512;2024-02-23T02:42:33;18.80;;;11.90;;
36797;SDS011;22748;8.426;99.512;2024-02-23T02:45:08;15.52;;;12.02;;
36797;SDS011;22748;8.426;99.512;2024-02-23T02:47:36;14.60;;;11.07;;
36797;SDS011;22748;8.426;99.512;2024-02-23T02:50:07;13.82;;;11.10;;
36797;SDS011;22748;8.426;99.512;2024-02-23T02:52:35;13.45;;;10.30;;
36797;SDS011;22748;8.426;99.512;2024-02-23T02:55:05;13.02;;;9.73;;
36797;SDS011;22748;8.426;99.512;2024-02-23T02:57:35;10.90;;;8.93;;
36797;SDS011;22748;8.426;99.512;2024-02-23T03:00:12;23.88;;;16.48;;
36797;SDS011;22748;8.426;99.512;2024-02-23T03:02:42;26.75;;;17.63;;
36797;SDS011;22748;8.426;99.512;2024-02-23T03:05:11;20.13;;;14.57;;
36797;SDS011;22748;8.426;99.512;2024-02-23T03:07:40;14.75;;;9.18;;
36797;SDS011;22748;8.426;99.512;2024-02-23T03:10:10;11.40;;;8.20;;
36797;SDS011;22748;8.426;99.512;2024-02-23T03:12:38;10.75;;;8.05;;
36797;SDS011;22748;8.426;99.512;2024-02-23T03:15:16;14.63;;;8.07;;
36797;SDS011;22748;8.426;99.512;2024-02-23T03:17:46;10.35;;;7.70;;
36797;SDS011;22748;8.426;99.512;2024-02-23T03:20:15;10.57;;;6.80;;
36797;SDS011;22748;8.426;99.512;2024-02-23T03:22:44;7.75;;;6.95;;
36797;SDS011;22748;8.426;99.512;2024-02-23T03:25:14;10.40;;;7.28;;
36797;SDS011;22748;8.426;99.512;2024-02-23T03:27:43;10.10;;;7.10;;
36797;SDS011;22748;8.426;99.512;2024-02-23T03:30:17;11.10;;;7.40;;
36797;SDS011;22748;8.426;99.512;2024-02-23T03:32:47;8.68;;;7.20;;
36797;SDS011;22748;8.426;99.512;2024-02-23T03:35:17;14.52;;;11.82;;
36797;SDS011;22748;8.426;99.512;2024-02-23T03:37:46;12.77;;;9.63;;
36797;SDS011;22748;8.426;99.512;2024-02-23T03:40:14;13.27;;;9.40;;
36797;SDS011;22748;8.426;99.512;2024-02-23T03:42:45;11.13;;;8.38;;
36797;SDS011;22748;8.426;99.512;2024-02-23T03:45:20;10.75;;;8.07;;
36797;SDS011;22748;8.426;99.512;2024-02-23T03:47:49;14.52;;;9.30;;
36797;SDS011;22748;8.426;99.512;2024-02-23T03:50:17;14.45;;;8.82;;
36797;SDS011;22748;8.426;99.512;2024-02-23T03:52:46;25.05;;;20.75;;
36797;SDS011;22748;8.426;99.512;2024-02-23T03:55:16;15.43;;;9.88;;
36797;SDS011;22748;8.426;99.512;2024-02-23T03:57:46;16.30;;;13.07;;
36797;SDS011;22748;8.426;99.512;2024-02-23T04:00:34;11.63;;;8.63;;
36797;SDS011;22748;8.426;99.512;2024-02-23T04:03:03;10.75;;;9.32;;
36797;SDS011;22748;8.426;99.512;2024-02-23T04:05:32;10.63;;;9.00;;
36797;SDS011;22748;8.426;99.512;2024-02-23T04:08:02;10.23;;;8.48;;
36797;SDS011;22748;8.426;99.512;2024-02-23T04:10:32;9.05;;;8.25;;
36797;SDS011;22748;8.426;99.512;2024-02-23T04:13:01;10.90;;;8.45;;
36797;SDS011;22748;8.426;99.512;2024-02-23T04:15:37;9.55;;;8.45;;
36797;SDS011;22748;8.426;99.512;2024-02-23T04:18:07;11.05;;;8.18;;
36797;SDS011;22748;8.426;99.512;2024-02-23T04:20:37;14.88;;;10.10;;
36797;SDS011;22748;8.426;99.512;2024-02-23T04:23:06;13.85;;;9.80;;
36797;SDS011;22748;8.426;99.512;2024-02-23T04:25:35;20.67;;;11.52;;
36797;SDS011;22748;8.426;99.512;2024-02-23T04:28:04;12.32;;;9.80;;
36797;SDS011;22748;8.426;99.512;2024-02-23T04:30:39;14.07;;;9.88;;
36797;SDS011;22748;8.426;99.512;2024-02-23T04:33:08;12.43;;;9.43;;
36797;SDS011;22748;8.426;99.512;2024-02-23T04:35:37;11.63;;;9.15;;
36797;SDS011;22748;8.426;99.512;2024-02-23T04:38:07;11.38;;;9.65;;
36797;SDS011;22748;8.426;99.512;2024-02-23T04:40:35;16.13;;;9.43;;
36797;SDS011;22748;8.426;99.512;2024-02-23T04:43:03;11.45;;;9.00;;
36797;SDS011;22748;8.426;99.512;2024-02-23T04:45:39;13.23;;;9.45;;
36797;SDS011;22748;8.426;99.512;2024-02-23T04:48:08;16.35;;;9.88;;
36797;SDS011;22748;8.426;99.512;2024-02-23T04:50:38;20.17;;;11.93;;
36797;SDS011;22748;8.426;99.512;2024-02-23T04:53:08;12.13;;;9.32;;
36797;SDS011;22748;8.426;99.512;2024-02-23T04:55:39;16.30;;;9.85;;
36797;SDS011;22748;8.426;99.512;2024-02-23T04:58:07;15.05;;;10.77;;
36797;SDS011;22748;8.426;99.512;2024-02-23T05:00:45;13.23;;;9.65;;
36797;SDS011;22748;8.426;99.512;2024-02-23T05:03:13;12.55;;;9.63;;
36797;SDS011;22748;8.426;99.512;2024-02-23T05:05:42;13.57;;;10.60;;
36797;SDS011;22748;8.426;99.512;2024-02-23T05:08:11;11.18;;;10.07;;
36797;SDS011;22748;8.426;99.512;2024-02-23T05:10:39;11.40;;;10.32;;
36797;SDS011;22748;8.426;99.512;2024-02-23T05:13:11;13.18;;;10.32;;
36797;SDS011;22748;8.426;99.512;2024-02-23T05:15:44;11.20;;;10.10;;
36797;SDS011;22748;8.426;99.512;2024-02-23T05:18:13;11.15;;;9.80;;
36797;SDS011;22748;8.426;99.512;2024-02-23T05:20:42;12.43;;;10.43;;
36797;SDS011;22748;8.426;99.512;2024-02-23T05:23:11;16.23;;;10.75;;
36797;SDS011;22748;8.426;99.512;2024-02-23T05:25:41;12.75;;;10.13;;
36797;SDS011;22748;8.426;99.512;2024-02-23T05:28:12;11.80;;;10.52;;
36797;SDS011;22748;8.426;99.512;2024-02-23T05:30:48;11.43;;;10.38;;
36797;SDS011;22748;8.426;99.512;2024-02-23T05:33:16;11.75;;;10.65;;
36797;SDS011;22748;8.426;99.512;2024-02-23T05:35:46;12.48;;;11.27;;
36797;SDS011;22748;8.426;99.512;2024-02-23T05:38:16;12.93;;;10.30;;
36797;SDS011;22748;8.426;99.512;2024-02-23T05:40:45;13.25;;;11.40;;
36797;SDS011;22748;8.426;99.512;2024-02-23T05:43:15;13.70;;;10.75;;
36797;SDS011;22748;8.426;99.512;2024-02-23T05:45:48;12.80;;;11.23;;
36797;SDS011;22748;8.426;99.512;2024-02-23T05:48:17;14.57;;;10.85;;
36797;SDS011;22748;8.426;99.512;2024-02-23T05:50:47;12.85;;;10.80;;
36797;SDS011;22748;8.426;99.512;2024-02-23T05:53:17;13.85;;;11.00;;
36797;SDS011;22748;8.426;99.512;2024-02-23T05:55:46;12.63;;;10.70;;
36797;SDS011;22748;8.426;99.512;2024-02-23T05:58:16;11.90;;;10.90;;
36797;SDS011;22748;8.426;99.512;2024-02-23T06:00:53;13.60;;;11.43;;
36797;SDS011;22748;8.426;99.512;2024-02-23T06:03:27;12.48;;;10.98;;
36797;SDS011;22748;8.426;99.512;2024-02-23T06:05:56;12.13;;;10.88;;
36797;SDS011;22748;8.426;99.512;2024-02-23T06:08:26;11.80;;;10.63;;
36797;SDS011;22748;8.426;99.512;2024-02-23T06:10:55;13.15;;;10.90;;
36797;SDS011;22748;8.426;99.512;2024-02-23T06:13:25;11.88;;;10.70;;
36797;SDS011;22748;8.426;99.512;2024-02-23T06:16:00;11.68;;;10.23;;
36797;SDS011;22748;8.426;99.512;2024-02-23T06:18:29;11.77;;;10.27;;
36797;SDS011;22748;8.426;99.512;2024-02-23T06:20:58;11.52;;;10.35;;
36797;SDS011;22748;8.426;99.512;2024-02-23T06:23:31;12.77;;;10.57;;
36797;SDS011;22748;8.426;99.512;2024-02-23T06:26:00;11.07;;;9.95;;
36797;SDS011;22748;8.426;99.512;2024-02-23T06:28:29;13.60;;;10.35;;
36797;SDS011;22748;8.426;99.512;2024-02-23T06:31:01;12.38;;;10.40;;
36797;SDS011;22748;8.426;99.512;2024-02-23T06:33:30;12.30;;;10.43;;
36797;SDS011;22748;8.426;99.512;2024-02-23T06:35:59;12.00;;;10.57;;
36797;SDS011;22748;8.426;99.512;2024-02-23T06:38:29;11.32;;;10.18;;
36797;SDS011;22748;8.426;99.512;2024-02-23T06:40:58;11.07;;;9.93;;
36797;SDS011;22748;8.426;99.512;2024-02-23T06:43:27;12.65;;;10.63;;
36797;SDS011;22748;8.426;99.512;2024-02-23T06:45:56;16.40;;;14.32;;
36797;SDS011;22748;8.426;99.512;2024-02-23T06:48:32;14.40;;;12.70;;
36797;SDS011;22748;8.426;99.512;2024-02-23T06:51:00;12.43;;;11.30;;
36797;SDS011;22748;8.426;99.512;2024-02-23T06:53:29;13.07;;;11.70;;
36797;SDS011;22748;8.426;99.512;2024-02-23T06:55:59;13.02;;;11.68;;
36797;SDS011;22748;8.426;99.512;2024-02-23T06:58:29;11.82;;;10.65;;
36797;SDS011;22748;8.426;99.512;2024-02-23T07:01:06;16.05;;;11.70;;
36797;SDS011;22748;8.426;99.512;2024-02-23T07:03:41;14.07;;;12.07;;
36797;SDS011;22748;8.426;99.512;2024-02-23T07:06:11;13.32;;;11.88;;
36797;SDS011;22748;8.426;99.512;2024-02-23T07:08:42;17.77;;;12.35;;
36797;SDS011;22748;8.426;99.512;2024-02-23T07:11:12;12.73;;;11.55;;
36797;SDS011;22748;8.426;99.512;2024-02-23T07:13:43;12.73;;;11.52;;
36797;SDS011;22748;8.426;99.512;2024-02-23T07:16:11;13.23;;;11.30;;
36797;SDS011;22748;8.426;99.512;2024-02-23T07:18:42;11.10;;;10.02;;
36797;SDS011;22748;8.426;99.512;2024-02-23T07:21:11;9.55;;;8.52;;
36797;SDS011;22748;8.426;99.512;2024-02-23T07:23:40;11.13;;;9.98;;
36797;SDS011;22748;8.426;99.512;2024-02-23T07:26:08;11.02;;;9.75;;
36797;SDS011;22748;8.426;99.512;2024-02-23T07:28:37;10.20;;;9.23;;
36797;SDS011;22748;8.426;99.512;2024-02-23T07:31:06;10.63;;;8.75;;
36797;SDS011;22748;8.426;99.512;2024-02-23T07:33:38;9.77;;;8.82;;
36797;SDS011;22748;8.426;99.512;2024-02-23T07:36:13;9.32;;;8.13;;
36797;SDS011;22748;8.426;99.512;2024-02-23T07:38:42;9.48;;;7.47;;
36797;SDS011;22748;8.426;99.512;2024-02-23T07:41:11;7.50;;;6.80;;
36797;SDS011;22748;8.426;99.512;2024-02-23T07:43:39;10.10;;;6.88;;
36797;SDS011;22748;8.426;99.512;2024-02-23T07:46:09;7.68;;;6.07;;
36797;SDS011;22748;8.426;99.512;2024-02-23T07:48:37;7.20;;;6.50;;
36797;SDS011;22748;8.426;99.512;2024-02-23T07:51:11;8.05;;;6.10;;
36797;SDS011;22748;8.426;99.512;2024-02-23T07:53:40;5.80;;;5.28;;
36797;SDS011;22748;8.426;99.512;2024-02-23T07:56:09;5.78;;;4.80;;
36797;SDS011;22748;8.426;99.512;2024-02-23T07:58:38;6.47;;;5.03;;
36797;SDS011;22748;8.426;99.512;2024-02-23T08:01:07;6.47;;;5.20;;
36797;SDS011;22748;8.426;99.512;2024-02-23T08:03:37;7.50;;;5.05;;
36797;SDS011;22748;8.426;99.512;2024-02-23T08:06:05;5.60;;;4.90;;
36797;SDS011;22748;8.426;99.512;2024-02-23T08:08:45;5.25;;;4.75;;
36797;SDS011;22748;8.426;99.512;2024-02-23T08:11:14;5.55;;;4.65;;
36797;SDS011;22748;8.426;99.512;2024-02-23T08:13:42;4.40;;;3.95;;
36797;SDS011;22748;8.426;99.512;2024-02-23T08:16:15;6.22;;;3.92;;
36797;SDS011;22748;8.426;99.512;2024-02-23T08:18:46;4.00;;;3.55;;
36797;SDS011;22748;8.426;99.512;2024-02-23T08:21:15;3.77;;;2.73;;
36797;SDS011;22748;8.426;99.512;2024-02-23T08:23:49;5.93;;;2.97;;
36797;SDS011;22748;8.426;99.512;2024-02-23T08:26:19;3.70;;;3.17;;
36797;SDS011;22748;8.426;99.512;2024-02-23T08:28:49;3.47;;;2.45;;
36797;SDS011;22748;8.426;99.512;2024-02-23T08:31:17;3.40;;;2.90;;
36797;SDS011;22748;8.426;99.512;2024-02-23T08:33:46;6.25;;;2.88;;
36797;SDS011;22748;8.426;99.512;2024-02-23T08:36:15;3.45;;;2.70;;
36797;SDS011;22748;8.426;99.512;2024-02-23T08:38:44;2.45;;;1.83;;
36797;SDS011;22748;8.426;99.512;2024-02-23T08:41:16;4.23;;;2.47;;
36797;SDS011;22748;8.426;99.512;2024-02-23T08:46:14;6.93;;;2.65;;
36797;SDS011;22748;8.426;99.512;2024-02-23T08:48:43;3.65;;;2.40;;
36797;SDS011;22748;8.426;99.512;2024-02-23T08:51:12;3.95;;;2.30;;
36797;SDS011;22748;8.426;99.512;2024-02-23T08:53:41;6.53;;;3.03;;
36797;SDS011;22748;8.426;99.512;2024-02-23T08:56:09;4.18;;;2.42;;
36797;SDS011;22748;8.426;99.512;2024-02-23T08:58:47;3.47;;;2.15;;
36797;SDS011;22748;8.426;99.512;2024-02-23T09:01:16;4.97;;;2.40;;
36797;SDS011;22748;8.426;99.512;2024-02-23T09:03:47;3.97;;;2.00;;
36797;SDS011;22748;8.426;99.512;2024-02-23T09:06:17;3.58;;;2.30;;
36797;SDS011;22748;8.426;99.512;2024-02-23T09:08:50;4.43;;;2.30;;
36797;SDS011;22748;8.426;99.512;2024-02-23T09:11:22;6.43;;;2.00;;
36797;SDS011;22748;8.426;99.512;2024-02-23T09:13:57;4.50;;;2.10;;
36797;SDS011;22748;8.426;99.512;2024-02-23T09:16:27;4.47;;;1.70;;
36797;SDS011;22748;8.426;99.512;2024-02-23T09:18:57;3.28;;;2.33;;
36797;SDS011;22748;8.426;99.512;2024-02-23T09:21:25;2.50;;;2.08;;
36797;SDS011;22748;8.426;99.512;2024-02-23T09:23:55;3.38;;;2.00;;
36797;SDS011;22748;8.426;99.512;2024-02-23T09:26:25;7.43;;;2.33;;
36797;SDS011;22748;8.426;99.512;2024-02-23T09:29:00;4.65;;;2.00;;
36797;SDS011;22748;8.426;99.512;2024-02-23T09:31:35;4.68;;;1.98;;
36797;SDS011;22748;8.426;99.512;2024-02-23T09:34:06;4.57;;;2.08;;
36797;SDS011;22748;8.426;99.512;2024-02-23T09:36:43;3.95;;;1.90;;
36797;SDS011;22748;8.426;99.512;2024-02-23T09:39:13;3.00;;;1.75;;
36797;SDS011;22748;8.426;99.512;2024-02-23T09:41:45;3.47;;;2.35;;
36797;SDS011;22748;8.426;99.512;2024-02-23T09:44:28;2.35;;;1.95;;
36797;SDS011;22748;8.426;99.512;2024-02-23T09:47:05;3.97;;;1.70;;
36797;SDS011;22748;8.426;99.512;2024-02-23T09:49:40;3.35;;;2.00;;
36797;SDS011;22748;8.426;99.512;2024-02-23T09:52:17;3.80;;;2.03;;
36797;SDS011;22748;8.426;99.512;2024-02-23T09:54:50;3.75;;;2.25;;
36797;SDS011;22748;8.426;99.512;2024-02-23T09:57:20;3.40;;;2.10;;
36797;SDS011;22748;8.426;99.512;2024-02-23T10:02:22;4.05;;;2.45;;
36797;SDS011;22748;8.426;99.512;2024-02-23T10:05:10;4.03;;;1.98;;
36797;SDS011;22748;8.426;99.512;2024-02-23T10:07:40;3.67;;;1.77;;
36797;SDS011;22748;8.426;99.512;2024-02-23T10:10:11;2.63;;;1.90;;
36797;SDS011;22748;8.426;99.512;2024-02-23T10:12:59;3.65;;;1.73;;
36797;SDS011;22748;8.426;99.512;2024-02-23T10:15:38;3.42;;;1.80;;
36797;SDS011;22748;8.426;99.512;2024-02-23T10:21:02;4.70;;;1.85;;
36797;SDS011;22748;8.426;99.512;2024-02-23T10:23:37;3.58;;;1.90;;
36797;SDS011;22748;8.426;99.512;2024-02-23T10:26:15;5.53;;;2.25;;
36797;SDS011;22748;8.426;99.512;2024-02-23T10:28:50;3.58;;;2.55;;
36797;SDS011;22748;8.426;99.512;2024-02-23T10:31:33;5.38;;;1.90;;
36797;SDS011;22748;8.426;99.512;2024-02-23T10:34:17;2.33;;;1.80;;
36797;SDS011;22748;8.426;99.512;2024-02-23T10:36:58;3.92;;;2.00;;
36797;SDS011;22748;8.426;99.512;2024-02-23T10:39:29;2.70;;;2.22;;
36797;SDS011;22748;8.426;99.512;2024-02-23T10:42:04;6.00;;;2.60;;
36797;SDS011;22748;8.426;99.512;2024-02-23T10:44:35;2.30;;;1.80;;
36797;SDS011;22748;8.426;99.512;2024-02-23T10:47:05;2.92;;;1.90;;
36797;SDS011;22748;8.426;99.512;2024-02-23T10:49:40;4.20;;;2.00;;
36797;SDS011;22748;8.426;99.512;2024-02-23T10:52:26;3.92;;;1.85;;
36797;SDS011;22748;8.426;99.512;2024-02-23T10:54:57;7.07;;;1.77;;
36797;SDS011;22748;8.426;99.512;2024-02-23T10:57:31;3.78;;;2.50;;
36797;SDS011;22748;8.426;99.512;2024-02-23T11:00:02;4.63;;;2.95;;
36797;SDS011;22748;8.426;99.512;2024-02-23T11:02:38;7.75;;;3.03;;
36797;SDS011;22748;8.426;99.512;2024-02-23T11:05:10;7.10;;;3.17;;
36797;SDS011;22748;8.426;99.512;2024-02-23T11:07:47;5.57;;;2.70;;
36797;SDS011;22748;8.426;99.512;2024-02-23T11:10:18;5.07;;;2.38;;
36797;SDS011;22748;8.426;99.512;2024-02-23T11:12:57;7.22;;;2.50;;
36797;SDS011;22748;8.426;99.512;2024-02-23T11:15:30;6.50;;;2.60;;
36797;SDS011;22748;8.426;99.512;2024-02-23T11:20:54;6.00;;;4.20;;
36797;SDS011;22748;8.426;99.512;2024-02-23T11:23:40;8.48;;;5.10;;
36797;SDS011;22748;8.426;99.512;2024-02-23T11:26:14;8.68;;;4.38;;
36797;SDS011;22748;8.426;99.512;2024-02-23T11:28:49;6.35;;;3.50;;
36797;SDS011;22748;8.426;99.512;2024-02-23T11:31:38;7.03;;;3.85;;
36797;SDS011;22748;8.426;99.512;2024-02-23T11:34:21;8.43;;;4.00;;
36797;SDS011;22748;8.426;99.512;2024-02-23T11:36:54;8.15;;;4.35;;
36797;SDS011;22748;8.426;99.512;2024-02-23T11:39:40;9.90;;;3.42;;
36797;SDS011;22748;8.426;99.512;2024-02-23T11:42:11;8.98;;;4.40;;
36797;SDS011;22748;8.426;99.512;2024-02-23T11:44:46;9.43;;;3.53;;
36797;SDS011;22748;8.426;99.512;2024-02-23T11:47:16;7.78;;;4.03;;
36797;SDS011;22748;8.426;99.512;2024-02-23T11:49:47;5.63;;;3.33;;
36797;SDS011;22748;8.426;99.512;2024-02-23T11:52:16;4.80;;;3.17;;
36797;SDS011;22748;8.426;99.512;2024-02-23T11:57:38;7.43;;;5.10;;
36797;SDS011;22748;8.426;99.512;2024-02-23T12:00:23;12.95;;;5.18;;
36797;SDS011;22748;8.426;99.512;2024-02-23T12:02:55;12.82;;;5.55;;
36797;SDS011;22748;8.426;99.512;2024-02-23T12:05:42;7.75;;;4.75;;
36797;SDS011;22748;8.426;99.512;2024-02-23T12:08:22;9.00;;;4.95;;
36797;SDS011;22748;8.426;99.512;2024-02-23T12:10:54;6.45;;;3.78;;
36797;SDS011;22748;8.426;99.512;2024-02-23T12:13:42;5.15;;;3.28;;
36797;SDS011;22748;8.426;99.512;2024-02-23T12:16:11;5.05;;;3.08;;
36797;SDS011;22748;8.426;99.512;2024-02-23T12:18:47;10.23;;;4.40;;
36797;SDS011;22748;8.426;99.512;2024-02-23T12:21:27;4.47;;;3.30;;
36797;SDS011;22748;8.426;99.512;2024-02-23T12:24:11;9.52;;;3.38;;
36797;SDS011;22748;8.426;99.512;2024-02-23T12:26:42;13.75;;;4.18;;
36797;SDS011;22748;8.426;99.512;2024-02-23T12:35:27;8.75;;;4.97;;
36797;SDS011;22748;8.426;99.512;2024-02-23T12:37:56;10.25;;;5.65;;
36797;SDS011;22748;8.426;99.512;2024-02-23T12:40:31;12.43;;;6.18;;
36797;SDS011;22748;8.426;99.512;2024-02-23T12:43:13;13.57;;;7.53;;
36797;SDS011;22748;8.426;99.512;2024-02-23T12:45:44;9.35;;;6.30;;
36797;SDS011;22748;8.426;99.512;2024-02-23T12:48:28;9.00;;;5.35;;
36797;SDS011;22748;8.426;99.512;2024-02-23T12:54:16;50.97;;;41.72;;
36797;SDS011;22748;8.426;99.512;2024-02-23T12:56:52;29.27;;;23.17;;
36797;SDS011;22748;8.426;99.512;2024-02-23T12:59:26;25.55;;;19.52;;
36797;SDS011;22748;8.426;99.512;2024-02-23T13:02:00;18.63;;;12.65;;
36797;SDS011;22748;8.426;99.512;2024-02-23T13:04:31;19.10;;;12.35;;
36797;SDS011;22748;8.426;99.512;2024-02-23T13:07:03;25.73;;;19.50;;
36797;SDS011;22748;8.426;99.512;2024-02-23T13:09:39;25.20;;;17.00;;
36797;SDS011;22748;8.426;99.512;2024-02-23T13:12:10;31.02;;;18.30;;
36797;SDS011;22748;8.426;99.512;2024-02-23T13:14:43;21.15;;;13.82;;
36797;SDS011;22748;8.426;99.512;2024-02-23T13:17:25;16.38;;;12.20;;
36797;SDS011;22748;8.426;99.512;2024-02-23T13:20:09;17.63;;;11.40;;
36797;SDS011;22748;8.426;99.512;2024-02-23T13:22:42;14.73;;;10.50;;
36797;SDS011;22748;8.426;99.512;2024-02-23T13:25:22;15.90;;;10.63;;
36797;SDS011;22748;8.426;99.512;2024-02-23T13:27:53;15.57;;;9.90;;
36797;SDS011;22748;8.426;99.512;2024-02-23T13:30:33;17.13;;;9.93;;
36797;SDS011;22748;8.426;99.512;2024-02-23T13:33:05;14.20;;;9.05;;
36797;SDS011;22748;8.426;99.512;2024-02-23T13:35:37;13.82;;;9.77;;
36797;SDS011;22748;8.426;99.512;2024-02-23T13:38:21;16.95;;;10.05;;
36797;SDS011;22748;8.426;99.512;2024-02-23T13:43:56;21.80;;;12.13;;
36797;SDS011;22748;8.426;99.512;2024-02-23T13:49:44;13.93;;;8.75;;
36797;SDS011;22748;8.426;99.512;2024-02-23T13:52:23;15.25;;;8.40;;
36797;SDS011;22748;8.426;99.512;2024-02-23T13:54:57;11.60;;;8.63;;
36797;SDS011;22748;8.426;99.512;2024-02-23T13:57:26;12.77;;;8.48;;
36797;SDS011;22748;8.426;99.512;2024-02-23T14:12:26;9.88;;;5.85;;
36797;SDS011;22748;8.426;99.512;2024-02-23T14:14:54;8.50;;;5.82;;
36797;SDS011;22748;8.426;99.512;2024-02-23T14:17:23;9.25;;;5.18;;
36797;SDS011;22748;8.426;99.512;2024-02-23T14:19:51;12.27;;;6.53;;
36797;SDS011;22748;8.426;99.512;2024-02-23T14:22:20;12.63;;;8.05;;
36797;SDS011;22748;8.426;99.512;2024-02-23T14:24:49;17.30;;;8.32;;
36797;SDS011;22748;8.426;99.512;2024-02-23T14:27:18;11.27;;;8.07;;
36797;SDS011;22748;8.426;99.512;2024-02-23T14:29:52;18.33;;;10.35;;
36797;SDS011;22748;8.426;99.512;2024-02-23T14:32:32;35.65;;;20.65;;
36797;SDS011;22748;8.426;99.512;2024-02-23T14:35:07;27.30;;;16.77;;
36797;SDS011;22748;8.426;99.512;2024-02-23T14:37:35;45.05;;;25.70;;
36797;SDS011;22748;8.426;99.512;2024-02-23T14:40:04;46.95;;;26.88;;
36797;SDS011;22748;8.426;99.512;2024-02-23T14:42:33;50.05;;;28.15;;
36797;SDS011;22748;8.426;99.512;2024-02-23T14:45:14;48.50;;;27.38;;
36797;SDS011;22748;8.426;99.512;2024-02-23T14:47:43;44.85;;;27.33;;
36797;SDS011;22748;8.426;99.512;2024-02-23T14:50:11;40.90;;;23.83;;
36797;SDS011;22748;8.426;99.512;2024-02-23T14:52:40;32.78;;;19.63;;
36797;SDS011;22748;8.426;99.512;2024-02-23T14:55:10;32.13;;;21.60;;
36797;SDS011;22748;8.426;99.512;2024-02-23T14:57:39;39.83;;;23.52;;
36797;SDS011;22748;8.426;99.512;2024-02-23T15:00:14;39.92;;;19.70;;
36797;SDS011;22748;8.426;99.512;2024-02-23T15:02:43;35.67;;;19.65;;
36797;SDS011;22748;8.426;99.512;2024-02-23T15:05:12;33.20;;;19.67;;
36797;SDS011;22748;8.426;99.512;2024-02-23T15:07:40;33.03;;;20.15;;
36797;SDS011;22748;8.426;99.512;2024-02-23T15:10:09;32.63;;;20.08;;
36797;SDS011;22748;8.426;99.512;2024-02-23T15:12:38;35.17;;;21.08;;
36797;SDS011;22748;8.426;99.512;2024-02-23T15:15:07;34.17;;;21.67;;
36797;SDS011;22748;8.426;99.512;2024-02-23T15:17:38;36.45;;;23.38;;
36797;SDS011;22748;8.426;99.512;2024-02-23T15:20:08;35.95;;;22.90;;
36797;SDS011;22748;8.426;99.512;2024-02-23T15:22:37;44.70;;;28.25;;
36797;SDS011;22748;8.426;99.512;2024-02-23T15:25:08;47.42;;;29.60;;
36797;SDS011;22748;8.426;99.512;2024-02-23T15:27:37;46.88;;;29.60;;
36797;SDS011;22748;8.426;99.512;2024-02-23T15:30:06;35.75;;;23.17;;
36797;SDS011;22748;8.426;99.512;2024-02-23T15:32:40;26.92;;;17.33;;
36797;SDS011;22748;8.426;99.512;2024-02-23T15:35:09;22.15;;;14.77;;
36797;SDS011;22748;8.426;99.512;2024-02-23T15:37:38;25.45;;;13.30;;
36797;SDS011;22748;8.426;99.512;2024-02-23T15:40:06;19.73;;;12.73;;